Time;durP1;ratioP1;P1;durP2;ratioP2;P2;SDS_P1;SDS_P2;PMS_P1;PMS_P2;Temp;Humidity;BMP_temperature;BMP_pressure;BME280_temperature;BME280_humidity;BME280_pressure;Samples;Min_cycle;Max_cycle;Signal;HPM_P1;HPM_P2
2022/04/25 00:01:09;;;;;;;14.32;6.47;;;7.20;84.10;;;;;;4994437;28;20030;-81
2022/04/25 00:03:35;;;;;;;10.48;6.20;;;7.10;84.10;;;;;;4972487;28;20486;-81
2022/04/25 00:06:00;;;;;;;10.25;6.15;;;7.10;84.30;;;;;;4975130;28;20030;-81
2022/04/25 00:08:26;;;;;;;10.00;6.40;;;7.20;84.20;;;;;;4973100;28;20092;-81
2022/04/25 00:10:51;;;;;;;10.20;5.68;;;7.10;84.20;;;;;;4994480;28;20035;-81
2022/04/25 00:13:17;;;;;;;13.10;5.95;;;7.20;84.30;;;;;;4971932;28;20077;-81
2022/04/25 00:15:43;;;;;;;12.10;6.63;;;7.20;84.40;;;;;;4988179;28;20046;-81
2022/04/25 00:18:09;;;;;;;11.00;6.28;;;7.10;84.30;;;;;;4973707;28;20034;-81
2022/04/25 00:20:34;;;;;;;11.27;6.75;;;7.20;84.50;;;;;;4976254;28;20022;-81
2022/04/25 00:23:05;;;;;;;12.10;6.20;;;7.20;84.30;;;;;;4993886;28;20026;-81
2022/04/25 00:25:31;;;;;;;;;;;7.30;84.50;;;;;;5001284;28;20076;-81
2022/04/25 00:27:57;;;;;;;;;;;7.20;84.50;;;;;;4971657;28;20010;-81
2022/04/25 00:30:24;;;;;;;;;;;7.30;84.60;;;;;;4984521;28;19961;-81
2022/04/25 00:32:50;;;;;;;;;;;7.30;84.60;;;;;;4987589;28;19961;-81
2022/04/25 00:35:15;;;;;;;;;;;7.30;84.30;;;;;;4973637;28;20344;-81
2022/04/25 00:37:40;;;;;;;;;;;7.20;84.20;;;;;;4974535;28;19936;-81
2022/04/25 00:40:06;;;;;;;;;;;7.20;84.50;;;;;;4973224;28;19992;-81
2022/04/25 00:42:32;;;;;;;;;;;7.20;84.60;;;;;;4986411;28;19913;-81
2022/04/25 00:44:59;;;;;;;;;;;7.20;84.50;;;;;;4985980;28;19913;-81
2022/04/25 00:47:24;;;;;;;;;;;7.20;84.70;;;;;;4973460;28;20328;-81
2022/04/25 00:49:50;;;;;;;;;;;7.10;84.30;;;;;;4990312;28;20353;-81
2022/04/25 00:52:15;;;;;;;;;;;7.20;84.50;;;;;;4986122;28;19909;-81
2022/04/25 00:54:41;;;;;;;;;;;7.10;84.30;;;;;;4972616;28;20004;-81
2022/04/25 00:57:06;;;;;;;;;;;7.10;84.20;;;;;;4987115;28;19924;-81
2022/04/25 00:59:32;;;;;;;;;;;7.10;84.20;;;;;;4971867;28;19917;-81
2022/04/25 01:01:58;;;;;;;;;;;7.10;84.40;;;;;;4990120;28;19922;-81
2022/04/25 01:04:24;;;;;;;;;;;7.10;84.20;;;;;;4968801;28;19913;-81
2022/04/25 01:06:49;;;;;;;;;;;7.10;84.40;;;;;;4973299;28;19916;-82
2022/04/25 01:09:15;;;;;;;;;;;7.00;84.30;;;;;;4971140;28;19913;-81
2022/04/25 01:11:40;;;;;;;;;;;7.00;84.40;;;;;;4971053;28;19918;-81
2022/04/25 01:14:11;;;;;;;;;;;7.00;84.50;;;;;;4983610;28;19929;-80
2022/04/25 01:16:37;;;;;;;;;;;7.00;84.50;;;;;;4966768;28;20009;-80
2022/04/25 01:19:02;;;;;;;;;;;7.00;84.50;;;;;;4988772;28;19982;-80
2022/04/25 01:21:28;;;;;;;;;;;7.00;84.40;;;;;;4972484;28;20015;-81
2022/04/25 01:29:22;;;;;;;;;;;6.90;84.10;;;;;;4982691;28;19921;-80
2022/04/25 01:31:48;;;;;;;;;;;7.00;84.30;;;;;;4985620;28;19910;-81
2022/04/25 01:34:13;;;;;;;;;;;7.00;84.30;;;;;;4990042;28;20148;-81
2022/04/25 01:36:38;;;;;;;;;;;7.00;84.30;;;;;;4992903;28;19941;-82
2022/04/25 01:39:04;;;;;;;;;;;7.00;84.20;;;;;;4968504;28;20001;-81
2022/04/25 01:41:29;;;;;;;;;;;6.90;84.30;;;;;;4969639;28;20449;-81
2022/04/25 01:43:55;;;;;;;;;;;7.00;84.30;;;;;;4965520;28;20385;-81
2022/04/25 01:46:20;;;;;;;;;;;7.00;84.30;;;;;;4972329;28;19921;-81
2022/04/25 01:48:46;;;;;;;;;;;6.90;84.20;;;;;;4967370;28;19921;-81
2022/04/25 01:51:11;;;;;;;;;;;6.90;84.10;;;;;;4987370;28;20137;-81
2022/04/25 01:53:37;;;;;;;;;;;7.00;84.30;;;;;;4979773;28;19913;-80
2022/04/25 01:56:03;;;;;;;;;;;7.00;84.30;;;;;;4970999;28;20280;-81
2022/04/25 01:58:29;;;;;;;;;;;7.00;84.20;;;;;;4984513;28;20461;-81
2022/04/25 02:00:54;;;;;;;;;;;7.00;84.20;;;;;;4978600;28;19961;-81
2022/04/25 02:03:19;;;;;;;;;;;7.00;84.00;;;;;;4984392;28;20381;-81
2022/04/25 02:05:45;;;;;;;;;;;7.00;83.90;;;;;;4968755;28;20304;-81
2022/04/25 02:08:10;;;;;;;;;;;7.00;83.80;;;;;;4985650;28;20277;-81
2022/04/25 02:10:36;;;;;;;;;;;7.00;83.60;;;;;;4967388;28;19984;-81
2022/04/25 02:13:01;;;;;;;;;;;7.00;83.80;;;;;;4964281;28;19969;-81
2022/04/25 02:15:27;;;;;;;;;;;6.90;83.50;;;;;;4966779;28;19945;-81
2022/04/25 02:17:52;;;;;;;;;;;6.90;83.70;;;;;;4988733;28;20448;-81
2022/04/25 02:20:18;;;;;;;;;;;6.90;83.60;;;;;;4975324;28;20206;-81
2022/04/25 02:22:43;;;;;;;;;;;6.90;83.60;;;;;;4966688;28;20313;-81
2022/04/25 02:25:09;;;;;;;;;;;6.90;83.70;;;;;;4989723;28;20303;-81
2022/04/25 02:27:34;;;;;;;;;;;6.90;83.90;;;;;;4963062;28;19914;-81
2022/04/25 02:30:00;;;;;;;;;;;6.90;83.60;;;;;;4985611;28;19914;-81
2022/04/25 02:32:27;;;;;;;;;;;6.90;83.80;;;;;;4970036;28;20424;-81
2022/04/25 02:34:54;;;;;;;;;;;6.80;83.90;;;;;;4959833;28;19918;-81
2022/04/25 02:37:23;;;;;;;;;;;6.80;83.80;;;;;;4967906;28;20340;-81
2022/04/25 02:39:48;;;;;;;;;;;6.80;83.90;;;;;;4971932;28;19914;-81
2022/04/25 02:42:14;;;;;;;;;;;6.80;84.00;;;;;;4980635;28;19910;-81
2022/04/25 02:44:39;;;;;;;;;;;6.80;84.20;;;;;;4969015;28;19925;-81
2022/04/25 02:47:05;;;;;;;;;;;6.70;83.90;;;;;;4988892;28;19906;-81
2022/04/25 02:49:30;;;;;;;;;;;6.80;84.30;;;;;;4972044;28;20066;-81
2022/04/25 02:51:56;;;;;;;;;;;6.80;84.20;;;;;;4987699;28;19909;-81
2022/04/25 02:54:21;;;;;;;;;;;6.80;84.20;;;;;;4990998;28;20289;-81
2022/04/25 02:56:48;;;;;;;;;;;6.80;84.30;;;;;;4975044;28;20012;-81
2022/04/25 02:59:13;;;;;;;;;;;6.90;84.20;;;;;;4974766;28;20757;-81
2022/04/25 03:01:39;;;;;;;;;;;6.80;84.20;;;;;;4973206;28;19946;-81
2022/04/25 03:04:04;;;;;;;;;;;6.80;84.40;;;;;;4969785;28;19937;-81
2022/04/25 03:06:30;;;;;;;;;;;6.80;84.60;;;;;;4970725;28;19914;-81
2022/04/25 03:08:55;;;;;;;;;;;6.90;84.80;;;;;;4963187;28;19914;-81
2022/04/25 03:11:21;;;;;;;;;;;6.90;85.00;;;;;;4972000;28;19960;-81
2022/04/25 03:13:47;;;;;;;;;;;6.90;85.20;;;;;;4985325;28;19914;-81
2022/04/25 03:16:12;;;;;;;;;;;6.80;85.60;;;;;;4969598;28;19933;-81
2022/04/25 03:18:38;;;;;;;;;;;6.80;85.80;;;;;;4971060;28;19909;-81
2022/04/25 03:21:04;;;;;;;;;;;6.80;85.70;;;;;;4968411;28;19910;-81
2022/04/25 03:23:29;;;;;;;;;;;6.70;85.80;;;;;;4968531;28;19914;-81
2022/04/25 03:25:55;;;;;;;;;;;6.70;86.00;;;;;;4966508;28;19910;-81
2022/04/25 03:28:20;;;;;;;;;;;6.60;86.10;;;;;;4966464;28;19921;-81
2022/04/25 03:30:46;;;;;;;;;;;6.70;86.20;;;;;;4967136;28;19917;-81
2022/04/25 03:33:11;;;;;;;;;;;6.60;86.20;;;;;;4969967;28;19994;-80
2022/04/25 03:35:41;;;;;;;;;;;6.60;86.10;;;;;;4971729;28;19993;-81
2022/04/25 03:38:06;;;;;;;;;;;6.60;86.10;;;;;;4967124;28;19913;-79
2022/04/25 03:40:34;;;;;;;;;;;6.60;86.10;;;;;;4968472;28;19976;-79
2022/04/25 03:43:00;;;;;;;;;;;6.70;86.00;;;;;;4967650;28;20033;-80
2022/04/25 03:45:25;;;;;;;;;;;6.70;85.80;;;;;;4968846;28;20032;-80
2022/04/25 03:47:50;;;;;;;;;;;6.70;85.70;;;;;;4971209;28;20382;-80
2022/04/25 03:50:16;;;;;;;;;;;6.70;85.70;;;;;;4975220;28;20285;-80
2022/04/25 03:52:42;;;;;;;;;;;6.70;85.60;;;;;;4980583;28;19984;-80
2022/04/25 03:57:53;;;;;;;;;;;6.70;85.40;;;;;;4965146;28;20030;-80
2022/04/25 04:00:19;;;;;;;;;;;6.60;85.20;;;;;;4982666;28;19954;-80
2022/04/25 04:02:45;;;;;;;;;;;6.60;85.30;;;;;;4986220;28;19918;-80
2022/04/25 04:05:11;;;;;;;;;;;6.60;85.20;;;;;;4987527;28;19953;-80
2022/04/25 04:07:37;;;;;;;;;;;6.70;85.20;;;;;;4985555;28;20006;-80
2022/04/25 04:10:02;;;;;;;;;;;6.60;85.10;;;;;;4987384;28;20005;-80
2022/04/25 04:12:31;;;;;;;;;;;6.70;85.30;;;;;;4970346;28;20073;-80
2022/04/25 04:14:58;;;;;;;;;;;6.60;85.00;;;;;;4986437;28;19910;-80
2022/04/25 04:17:24;;;;;;;;;;;6.70;85.10;;;;;;4994985;28;19965;-80
2022/04/25 04:19:52;;;;;;;;;;;6.60;84.90;;;;;;4970588;28;19936;-81
2022/04/25 04:22:17;;;;;;;;;;;6.60;84.80;;;;;;4968954;28;19910;-80
2022/04/25 04:24:43;;;;;;;;;;;6.70;84.90;;;;;;4987271;28;19917;-80
2022/04/25 04:27:08;;;;;;;;;;;6.70;84.80;;;;;;4972117;28;19910;-80
2022/04/25 04:29:34;;;;;;;;;;;6.70;84.60;;;;;;4971974;28;19913;-80
2022/04/25 04:32:01;;;;;;;;;;;6.70;84.40;;;;;;4980512;28;19929;-80
2022/04/25 04:34:27;;;;;;;;;;;6.80;84.40;;;;;;4987697;28;19914;-80
2022/04/25 04:36:52;;;;;;;;;;;6.70;84.30;;;;;;4979777;28;19929;-82
2022/04/25 04:39:18;;;;;;;;;;;6.70;84.50;;;;;;4983656;28;19969;-81
2022/04/25 04:41:44;;;;;;;;;;;6.70;84.40;;;;;;4982059;28;20443;-81
2022/04/25 04:44:10;;;;;;;;;;;6.80;84.10;;;;;;4977930;28;20199;-81
2022/04/25 04:46:35;;;;;;;;;;;6.80;84.10;;;;;;4993183;28;20118;-81
2022/04/25 04:49:01;;;;;;;;;;;6.90;84.10;;;;;;4987199;28;20004;-81
2022/04/25 04:51:26;;;;;;;;;;;6.80;83.90;;;;;;4984625;28;19916;-82
2022/04/25 04:53:52;;;;;;;;;;;6.70;83.60;;;;;;4983228;28;19921;-81
2022/04/25 04:56:17;;;;;;;;;;;6.80;83.60;;;;;;4969166;28;20478;-81
2022/04/25 04:58:43;;;;;;;;;;;6.90;83.80;;;;;;4981958;28;20323;-82
2022/04/25 05:01:08;;;;;;;;;;;6.60;83.20;;;;;;4968262;28;19997;-82
2022/04/25 05:03:34;;;;;;;;;;;6.70;83.60;;;;;;4970063;28;19980;-81
2022/04/25 05:06:00;;;;;;;;;;;6.80;83.90;;;;;;4971524;28;20389;-81
2022/04/25 05:08:25;;;;;;;;;;;6.80;83.60;;;;;;4977193;28;19910;-82
2022/04/25 05:10:51;;;;;;;;;;;6.80;83.60;;;;;;4984555;28;19960;-82
2022/04/25 05:13:17;;;;;;;;;;;6.80;83.50;;;;;;4983067;28;19925;-82
2022/04/25 05:15:42;;;;;;;;;;;6.90;83.50;;;;;;4968773;28;20307;-82
2022/04/25 05:18:08;;;;;;;;;;;6.80;83.20;;;;;;4968425;28;19910;-82
2022/04/25 05:20:33;;;;;;;;;;;6.60;82.80;;;;;;4986445;28;19925;-82
2022/04/25 05:22:59;;;;;;;;;;;6.80;83.40;;;;;;4984214;28;19910;-82
2022/04/25 05:25:25;;;;;;;;;;;6.80;83.00;;;;;;4985533;28;19910;-82
2022/04/25 05:27:52;;;;;;;;;;;6.90;82.90;;;;;;4983483;28;19916;-82
2022/04/25 05:30:18;;;;;;;;;;;6.90;82.40;;;;;;4965168;28;19920;-81
2022/04/25 05:32:45;;;;;;;;;;;7.00;82.70;;;;;;4986802;28;19920;-82
2022/04/25 05:35:11;;;;;;;;;;;7.10;82.40;;;;;;4989143;28;19918;-81
2022/04/25 05:37:38;;;;;;;;;;;7.00;82.20;;;;;;4985985;28;19917;-81
2022/04/25 05:40:03;;;;;;;;;;;7.10;82.30;;;;;;4963935;28;19938;-82
2022/04/25 05:42:29;;;;;;;;;;;7.30;82.30;;;;;;4978471;28;19917;-82
2022/04/25 05:44:54;;;;;;;;;;;7.20;81.90;;;;;;4987318;28;19992;-82
2022/04/25 05:47:20;;;;;;;;;;;7.20;81.90;;;;;;4967314;28;19956;-82
2022/04/25 05:52:30;;;;;;;;;;;7.10;82.00;;;;;;4985871;28;19924;-82
2022/04/25 05:54:55;;;;;;;;;;;7.20;82.00;;;;;;4972312;28;19910;-82
2022/04/25 05:57:22;;;;;;;;;;;7.20;82.20;;;;;;4967722;28;19925;-82
2022/04/25 05:59:48;;;;;;;;;;;7.30;82.20;;;;;;4968421;28;19917;-82
2022/04/25 06:02:16;;;;;;;;;;;7.30;82.10;;;;;;4984733;28;19914;-82
2022/04/25 06:04:42;;;;;;;;;;;7.30;81.90;;;;;;4986553;28;19913;-82
2022/04/25 06:07:08;;;;;;;;;;;7.20;81.40;;;;;;4981780;28;19914;-82
2022/04/25 06:09:34;;;;;;;;;;;7.10;81.70;;;;;;4982123;28;19913;-82
2022/04/25 06:12:00;;;;;;;;;;;7.30;81.90;;;;;;4990132;28;20348;-82
2022/04/25 06:14:25;;;;;;;;;;;7.10;81.60;;;;;;4990037;28;19920;-82
2022/04/25 06:16:51;;;;;;;;;;;7.10;82.20;;;;;;4972287;28;19921;-82
2022/04/25 06:19:16;;;;;;;;;;;7.10;82.00;;;;;;4987093;28;19913;-82
2022/04/25 06:21:42;;;;;;;;;;;7.10;81.70;;;;;;4972579;28;19968;-82
2022/04/25 06:24:08;;;;;;;;;;;7.10;81.80;;;;;;4990644;28;19976;-81
2022/04/25 06:26:34;;;;;;;;;;;7.10;81.70;;;;;;4988394;28;19913;-82
2022/04/25 06:28:59;;;;;;;;;;;7.10;82.00;;;;;;4988064;28;19914;-82
2022/04/25 06:31:25;;;;;;;;;;;7.40;82.10;;;;;;4986711;28;20849;-81
2022/04/25 06:33:50;;;;;;;;;;;7.40;81.40;;;;;;4991090;28;19914;-82
2022/04/25 06:36:16;;;;;;;;;;;7.50;81.70;;;;;;4992777;28;20496;-82
2022/04/25 06:38:41;;;;;;;;;;;7.40;80.50;;;;;;4989131;28;20027;-82
2022/04/25 06:41:07;;;;;;;;;;;7.50;81.00;;;;;;4990104;28;19973;-82
2022/04/25 06:43:32;;;;;;;;;;;7.60;80.70;;;;;;4987096;28;19913;-82
2022/04/25 06:45:58;;;;;;;;;;;7.50;80.20;;;;;;4976617;28;19917;-82
2022/04/25 06:48:23;;;;;;;;;;;7.70;80.60;;;;;;4978330;28;19945;-82
2022/04/25 06:50:49;;;;;;;;;;;7.80;80.00;;;;;;4972914;28;19910;-82
2022/04/25 06:53:14;;;;;;;;;;;8.00;80.20;;;;;;4989598;28;20286;-82
2022/04/25 06:55:40;;;;;;;;;;;7.90;79.60;;;;;;4972593;28;19921;-82
2022/04/25 06:58:06;;;;;;;;;;;7.90;79.30;;;;;;4993630;28;20005;-82
2022/04/25 07:00:32;;;;;;;;;;;8.10;79.50;;;;;;4974181;28;19920;-82
2022/04/25 07:02:57;;;;;;;;;;;8.20;79.10;;;;;;4972179;28;19922;-83
2022/04/25 07:05:24;;;;;;;;;;;8.20;78.70;;;;;;4970754;28;19953;-82
2022/04/25 07:07:50;;;;;;;;;;;8.30;78.00;;;;;;4969682;28;19910;-82
2022/04/25 07:10:15;;;;;;;;;;;8.30;77.70;;;;;;4970910;28;20290;-82
2022/04/25 07:12:42;;;;;;;;;;;8.30;78.70;;;;;;4970773;28;19914;-82
2022/04/25 07:15:07;;;;;;;;;;;8.40;78.10;;;;;;4970389;28;19921;-82
2022/04/25 07:17:33;;;;;;;;;;;8.30;77.90;;;;;;4972856;28;20301;-82
2022/04/25 07:19:58;;;;;;;;;;;8.40;78.00;;;;;;4974719;28;19906;-82
2022/04/25 07:30:36;;;;;;;;;;;8.70;75.90;;;;;;4965170;28;20619;-82
2022/04/25 07:33:02;;;;;;;;;;;8.80;76.40;;;;;;4969951;28;19914;-82
2022/04/25 07:35:28;;;;;;;;;;;8.90;76.10;;;;;;4971138;28;20008;-82
2022/04/25 07:37:55;;;;;;;;;;;8.90;76.30;;;;;;4968025;28;19929;-82
2022/04/25 07:40:21;;;;;;;;;;;9.10;75.60;;;;;;4972229;28;19906;-82
2022/04/25 07:42:47;;;;;;;;;;;9.10;75.30;;;;;;4965248;28;20262;-82
2022/04/25 07:45:12;;;;;;;;;;;9.30;75.00;;;;;;4969096;28;19945;-82
2022/04/25 07:47:42;;;;;;;;;;;9.60;74.70;;;;;;4967990;28;19918;-82
2022/04/25 07:50:09;;;;;;;;;;;9.80;74.10;;;;;;4968071;28;20238;-82
2022/04/25 07:52:34;;;;;;;;;;;9.50;73.70;;;;;;4961178;28;20132;-82
2022/04/25 07:55:00;;;;;;;;;;;9.70;73.30;;;;;;4968404;28;19933;-82
2022/04/25 07:57:25;;;;;;;;;;;9.70;71.60;;;;;;4969616;28;20341;-82
2022/04/25 07:59:51;;;;;;;;;;;9.90;73.00;;;;;;4968733;28;19917;-83
2022/04/25 08:02:20;;;;;;;;;;;10.30;72.00;;;;;;4980666;28;19913;-83
2022/04/25 08:04:45;;;;;;;;;;;10.90;71.90;;;;;;4971298;28;19949;-82
2022/04/25 08:07:11;;;;;;;;;;;10.80;69.40;;;;;;4971794;28;19945;-82
2022/04/25 08:09:37;;;;;;;;;;;11.30;69.80;;;;;;4975689;28;19914;-83
2022/04/25 08:20:19;;;;;;;;;;;12.10;67.20;;;;;;4988601;28;19947;-82
2022/04/25 08:22:45;;;;;;;;;;;12.70;66.90;;;;;;4972714;28;19913;-83
2022/04/25 08:25:11;;;;;;;;;;;12.40;64.50;;;;;;4989230;28;19916;-83
2022/04/25 08:27:36;;;;;;;;;;;12.60;64.30;;;;;;4987256;28;19914;-83
2022/04/25 08:30:03;;;;;;;;;;;12.60;64.10;;;;;;4987352;28;20711;-82
2022/04/25 08:32:33;;;;;;;;;;;12.60;64.10;;;;;;4986349;28;20273;-83
2022/04/25 08:35:02;;;;;;;;;;;12.70;63.60;;;;;;4968640;28;19909;-83
2022/04/25 08:37:28;;;;;;;;;;;12.70;62.60;;;;;;4972135;28;20274;-83
2022/04/25 08:39:53;;;;;;;;;;;13.00;63.50;;;;;;4972092;28;19976;-83
2022/04/25 08:42:19;;;;;;;;;;;13.30;62.50;;;;;;4982839;28;19971;-83
2022/04/25 08:44:45;;;;;;;;;;;13.30;62.40;;;;;;4983640;28;20404;-83
2022/04/25 08:47:14;;;;;;;;;;;13.50;60.60;;;;;;4973501;28;19924;-83
2022/04/25 08:49:39;;;;;;;;;;;13.80;59.20;;;;;;4988214;28;19909;-83
2022/04/25 08:52:05;;;;;;;;;;;13.90;60.90;;;;;;4988175;28;19991;-83
2022/04/25 08:54:32;;;;;;;;;;;14.00;59.90;;;;;;4982367;28;19953;-83
2022/04/25 08:56:58;;;;;;;;;;;14.30;58.70;;;;;;4976777;28;20433;-83
2022/04/25 08:59:24;;;;;;;;;;;14.00;57.40;;;;;;4983562;28;19910;-83
2022/04/25 09:01:49;;;;;;;;;;;14.10;57.30;;;;;;4980520;28;19989;-83
2022/04/25 09:04:15;;;;;;;;;;;13.70;56.50;;;;;;4983776;28;19910;-83
2022/04/25 09:06:41;;;;;;;;;;;14.40;58.80;;;;;;4979683;28;20297;-83
2022/04/25 09:09:06;;;;;;;;;;;14.40;57.20;;;;;;4996538;28;20247;-83
2022/04/25 09:14:17;;;;;;;;;;;15.00;56.90;;;;;;4996211;28;19929;-83
2022/04/25 09:16:42;;;;;;;;;;;15.20;56.00;;;;;;4990750;28;19926;-82
2022/04/25 09:19:08;;;;;;;;;;;14.70;55.90;;;;;;4995388;28;19910;-82
2022/04/25 09:21:43;;;;;;;;;;;14.90;55.00;;;;;;4978796;28;20373;-82
2022/04/25 09:24:19;;;;;;;;;;;15.10;55.90;;;;;;4995415;28;19963;-83
2022/04/25 09:26:44;;;;;;;;;;;15.20;53.50;;;;;;4994870;28;19910;-83
2022/04/25 09:29:11;;;;;;;;;;;15.90;55.10;;;;;;4979109;28;19909;-82
2022/04/25 09:31:46;;;;;;;;;;;15.90;51.90;;;;;;4979924;28;19932;-82
2022/04/25 09:34:16;;;;;;;;;;;15.40;52.00;;;;;;4975860;28;19914;-83
2022/04/25 09:36:48;;;;;;;;;;;15.80;51.90;;;;;;4993243;28;19914;-83
2022/04/25 09:39:28;;;;;;;;;;;15.50;51.30;;;;;;4993611;28;19916;-83
2022/04/25 09:41:53;;;;;;;;;;;15.50;53.70;;;;;;4967158;28;19913;-83
2022/04/25 09:44:18;;;;;;;;;;;16.40;53.20;;;;;;4978339;28;20284;-83
2022/04/25 09:46:47;;;;;;;;;;;16.50;51.70;;;;;;4978343;28;20323;-82
2022/04/25 09:49:18;;;;;;;;;;;16.40;49.40;;;;;;4967624;28;19913;-83
2022/04/25 09:52:02;;;;;;;;;;;16.30;50.90;;;;;;4995617;28;20013;-83
2022/04/25 09:54:28;;;;;;;;;;;16.30;50.20;;;;;;4978054;28;19913;-83
2022/04/25 09:56:54;;;;;;;;;;;16.50;50.60;;;;;;4995500;28;19928;-83
2022/04/25 09:59:21;;;;;;;;;;;16.50;49.00;;;;;;4980540;28;20062;-83
2022/04/25 10:02:00;;;;;;;;;;;16.60;49.80;;;;;;4976452;28;19920;-84
2022/04/25 10:04:33;;;;;;;;;;;17.10;48.80;;;;;;4991368;28;20277;-83
2022/04/25 10:06:59;;;;;;;;;;;16.90;49.60;;;;;;4995520;28;19937;-83
2022/04/25 10:09:27;;;;;;;;;;;16.70;47.90;;;;;;4982931;28;19910;-83
2022/04/25 10:11:54;;;;;;;;;;;17.00;47.10;;;;;;4969463;28;20048;-83
2022/04/25 10:14:20;;;;;;;;;;;17.00;48.90;;;;;;4977873;28;20020;-83
2022/04/25 10:16:45;;;;;;;;;;;17.20;47.70;;;;;;4974599;28;19963;-83
2022/04/25 10:19:11;;;;;;;;;;;17.80;47.10;;;;;;4977533;28;19909;-83
2022/04/25 10:21:36;;;;;;;;;;;17.80;44.80;;;;;;4976593;28;19956;-83
2022/04/25 10:24:02;;;;;;;;;;;17.60;47.20;;;;;;4971504;28;19918;-83
2022/04/25 10:26:29;;;;;;;;;;;18.00;45.30;;;;;;4973964;28;19910;-83
2022/04/25 10:28:55;;;;;;;;;;;17.80;46.00;;;;;;4979850;28;19910;-84
2022/04/25 10:31:28;;;;;;;;;;;17.90;45.10;;;;;;4989153;28;19917;-83
2022/04/25 10:33:54;;;;;;;;;;;18.20;48.80;;;;;;4991769;28;19914;-83
2022/04/25 10:36:38;;;;;;;;;;;18.00;46.90;;;;;;4988358;28;19921;-83
2022/04/25 10:39:23;;;;;;;;;;;18.40;47.10;;;;;;4982876;28;20502;-83
2022/04/25 10:44:45;;;;;;;;;;;18.50;45.20;;;;;;4983466;28;19952;-83
2022/04/25 10:47:13;;;;;;;;;;;18.70;46.10;;;;;;4987143;28;19941;-83
2022/04/25 10:49:42;;;;;;;;;;;18.50;45.90;;;;;;4978102;28;19981;-83
2022/04/25 10:52:27;;;;;;;;;;;18.70;44.40;;;;;;4995045;28;19913;-83
2022/04/25 10:55:10;;;;;;;;;;;18.60;42.70;;;;;;4988858;28;19963;-83
2022/04/25 10:57:35;;;;;;;;;;;19.20;44.40;;;;;;4989366;28;20008;-83
2022/04/25 11:00:01;;;;;;;;;;;18.90;42.90;;;;;;4976146;28;20424;-84
2022/04/25 11:02:28;;;;;;;;;;;19.00;43.90;;;;;;4978082;28;19914;-81
2022/04/25 11:05:11;;;;;;;;;;;18.70;40.60;;;;;;4978641;28;19906;-81
2022/04/25 11:07:41;;;;;;;;;;;18.50;41.80;;;;;;4991985;28;19941;-81
2022/04/25 11:10:07;;;;;;;;;;;18.10;42.80;;;;;;4989828;28;19913;-81
2022/04/25 11:12:52;;;;;;;;;;;18.40;42.10;;;;;;4973743;28;19914;-81
2022/04/25 11:15:37;;;;;;;;;;;18.40;42.10;;;;;;4993501;28;19917;-81
2022/04/25 11:18:38;;;;;;;;;;;19.00;42.60;;;;;;4980030;28;19925;-81
2022/04/25 11:21:08;;;;;;;;;;;18.70;41.00;;;;;;4971877;28;19909;-81
2022/04/25 11:23:34;;;;;;;;;;;18.60;40.20;;;;;;4984299;28;19921;-81
2022/04/25 11:26:00;;;;;;;;;;;19.00;38.70;;;;;;4995034;28;19914;-81
2022/04/25 11:28:26;;;;;;;;;;;19.00;39.50;;;;;;4995083;28;20285;-82
2022/04/25 11:31:10;;;;;;;;;;;19.20;39.00;;;;;;4994540;28;19985;-82
2022/04/25 11:33:46;;;;;;;;;;;18.80;40.20;;;;;;4992195;28;20533;-81
2022/04/25 11:36:11;;;;;;;;;;;19.40;41.30;;;;;;4981689;28;19910;-84
2022/04/25 11:41:22;;;;;;;;;;;19.70;39.80;;;;;;4993135;28;19921;-82
2022/04/25 11:43:47;;;;;;;;;;;20.20;39.20;;;;;;4995522;28;19917;-82
2022/04/25 11:46:13;;;;;;;;;;;20.70;38.90;;;;;;4980315;28;20100;-82
2022/04/25 11:48:39;;;;;;;;;;;20.50;38.90;;;;;;4976904;28;19916;-80
2022/04/25 11:51:04;;;;;;;;;;;19.90;38.80;;;;;;4979017;28;20475;-82
2022/04/25 11:53:33;;;;;;;;;;;20.00;40.10;;;;;;4977573;28;19933;-81
2022/04/25 11:56:01;;;;;;;;;;;20.70;38.30;;;;;;4980331;28;20408;-82
2022/04/25 11:58:30;;;;;;;;;;;20.90;35.90;;;;;;4971424;28;20362;-83
2022/04/25 12:00:56;;;;;;;;;;;20.80;36.00;;;;;;4988377;28;19913;-83
2022/04/25 12:03:24;;;;;;;;;;;20.60;35.50;;;;;;4984813;28;19913;-84
2022/04/25 12:05:49;;;;;;;;;;;21.70;36.70;;;;;;4994267;28;19909;-83
2022/04/25 12:16:35;;;;;;;;;;;22.80;34.30;;;;;;4985132;28;19973;-81
2022/04/25 12:19:05;;;;;;;;;;;22.70;37.60;;;;;;4996182;28;19914;-82
2022/04/25 12:21:32;;;;;;;;;;;23.10;35.80;;;;;;4972640;28;20322;-82
2022/04/25 12:23:57;;;;;;;;;;;23.00;34.60;;;;;;4981951;28;19964;-83
2022/04/25 12:26:25;;;;;;;;;;;22.30;35.40;;;;;;4973269;28;20369;-82
2022/04/25 12:28:59;;;;;;;;;;;22.80;34.50;;;;;;4978267;28;20361;-82
2022/04/25 12:31:25;;;;;;;;;;;22.70;34.00;;;;;;4988560;28;19910;-83
2022/04/25 12:33:50;;;;;;;;;;;23.00;34.10;;;;;;4988565;28;19909;-82
2022/04/25 12:36:27;;;;;;;;;;;23.50;34.50;;;;;;4974185;28;20289;-82
2022/04/25 12:38:59;;;;;;;;;;;22.70;35.10;;;;;;4976377;28;19917;-82
2022/04/25 12:41:25;;;;;;;;;;;21.30;36.60;;;;;;4990443;28;19922;-82
2022/04/25 12:43:53;;;;;;;;;;;21.80;36.50;;;;;;4978054;28;19914;-82
2022/04/25 12:46:34;;;;;;;;;;;21.80;36.10;;;;;;4976206;28;19909;-82
2022/04/25 12:49:00;;;;;;;;;;;22.80;35.10;;;;;;4987386;28;19925;-82
2022/04/25 12:51:37;;;;;;;;;;;22.70;35.20;;;;;;4976576;28;19916;-85
2022/04/25 12:54:03;;;;;;;;;;;21.20;34.90;;;;;;4985178;28;19918;-84
2022/04/25 12:56:29;;;;;;;;;;;20.90;37.10;;;;;;4978329;28;19964;-84
2022/04/25 12:58:56;;;;;;;;;;;19.90;38.90;;;;;;4994937;28;20285;-84
2022/04/25 13:01:27;;;;;;;;;;;19.30;37.50;;;;;;4996019;28;19913;-84
2022/04/25 13:04:03;;;;;;;;;;;19.60;39.50;;;;;;4992823;28;19969;-84
2022/04/25 13:06:28;;;;;;;;;;;21.00;37.80;;;;;;4977265;28;19906;-84
2022/04/25 13:08:54;;;;;;;;;;;22.30;36.20;;;;;;4974956;28;20118;-84
2022/04/25 13:11:19;;;;;;;;;;;23.00;34.30;;;;;;4977128;28;20369;-84
2022/04/25 13:13:44;;;;;;;;;;;22.90;34.80;;;;;;4994923;28;19949;-85
2022/04/25 13:16:10;;;;;;;;;;;22.40;34.20;;;;;;4991878;28;19917;-84
2022/04/25 13:18:35;;;;;;;;;;;21.70;36.30;;;;;;4989441;28;19964;-84
2022/04/25 13:21:03;;;;;;;;;;;21.00;37.20;;;;;;4988088;28;19996;-84
2022/04/25 13:23:30;;;;;;;;;;;20.70;38.40;;;;;;4981512;28;19925;-84
2022/04/25 13:25:55;;;;;;;;;;;20.30;38.00;;;;;;4994358;28;19936;-83
2022/04/25 13:28:21;;;;;;;;;;;19.80;38.10;;;;;;4986127;28;19964;-84
2022/04/25 13:30:46;;;;;;;;;;;20.60;37.50;;;;;;4996468;28;19912;-84
2022/04/25 13:33:12;;;;;;;;;;;21.30;35.10;;;;;;4993762;28;20273;-84
2022/04/25 13:35:37;;;;;;;;;;;22.80;34.20;;;;;;4987811;28;19953;-84
2022/04/25 13:38:02;;;;;;;;;;;23.10;32.60;;;;;;4984199;28;19921;-84
2022/04/25 13:40:28;;;;;;;;;;;23.50;31.70;;;;;;4993975;28;19979;-85
2022/04/25 13:42:53;;;;;;;;;;;24.40;31.70;;;;;;4991743;28;20349;-84
2022/04/25 13:45:19;;;;;;;;;;;24.10;29.10;;;;;;4976079;28;20358;-85
2022/04/25 13:47:44;;;;;;;;;;;25.00;31.30;;;;;;4996410;28;19952;-85
2022/04/25 13:50:10;;;;;;;;;;;25.20;29.90;;;;;;4992836;28;19913;-83
2022/04/25 13:52:36;;;;;;;;;;;24.30;30.40;;;;;;4986647;28;19973;-82
2022/04/25 13:55:02;;;;;;;;;;;24.00;31.20;;;;;;4976521;28;19910;-82
2022/04/25 13:57:27;;;;;;;;;;;23.40;31.20;;;;;;4976147;28;19936;-82
2022/04/25 13:59:52;;;;;;;;;;;22.90;32.30;;;;;;4980182;28;19905;-81
2022/04/25 14:05:02;;;;;;;;;;;21.40;35.70;;;;;;4988374;28;19925;-81
2022/04/25 14:07:28;;;;;;;;;;;20.40;36.30;;;;;;4982837;28;20111;-83
2022/04/25 14:09:53;;;;;;;;;;;19.80;39.10;;;;;;4991346;28;19921;-84
2022/04/25 14:12:19;;;;;;;;;;;20.00;38.10;;;;;;4989838;28;19917;-84
2022/04/25 14:14:45;;;;;;;;;;;21.30;38.10;;;;;;4980249;28;19917;-84
2022/04/25 14:17:11;;;;;;;;;;;20.80;37.10;;;;;;4977934;28;19940;-84
2022/04/25 14:19:36;;;;;;;;;;;20.20;37.40;;;;;;4996881;28;19952;-84
2022/04/25 14:22:02;;;;;;;;;;;19.70;37.50;;;;;;4980800;28;19917;-84
2022/04/25 14:24:28;;;;;;;;;;;19.40;39.60;;;;;;4996227;28;20349;-83
2022/04/25 14:26:53;;;;;;;;;;;20.00;38.60;;;;;;4976979;28;19960;-83
2022/04/25 14:29:19;;;;;;;;;;;21.90;35.10;;;;;;4979267;28;19921;-84
2022/04/25 14:31:44;;;;;;;;;;;22.20;33.40;;;;;;4978472;28;19910;-84
2022/04/25 14:34:10;;;;;;;;;;;21.10;35.50;;;;;;4977736;28;19914;-84
2022/04/25 14:36:35;;;;;;;;;;;22.20;34.50;;;;;;4996022;28;19910;-84
2022/04/25 14:39:01;;;;;;;;;;;22.10;33.90;;;;;;4972226;28;19914;-84
2022/04/25 14:41:27;;;;;;;;;;;21.60;35.40;;;;;;4979286;28;19948;-85
2022/04/25 14:43:53;;;;;;;;;;;21.10;36.70;;;;;;4989721;28;19914;-84
2022/04/25 14:46:19;;;;;;;;;;;20.70;37.30;;;;;;4975730;28;19993;-84
2022/04/25 14:48:44;;;;;;;;;;;20.00;38.80;;;;;;4980550;28;19929;-84
2022/04/25 14:56:38;;;;;;;;;;;19.40;40.30;;;;;;4999872;28;19964;-83
2022/04/25 14:59:04;;;;;;;;;;;19.30;41.30;;;;;;4981913;28;19913;-83
2022/04/25 15:01:29;;;;;;;;;;;19.30;40.60;;;;;;4991575;28;19918;-84
2022/04/25 15:03:55;;;;;;;;;;;19.30;40.10;;;;;;4999721;28;20320;-83
2022/04/25 15:06:21;;;;;;;;;;;19.40;40.90;;;;;;5001241;28;20242;-83
2022/04/25 15:08:46;;;;;;;;;;;19.40;39.80;;;;;;4977595;28;19920;-83
2022/04/25 15:11:12;;;;;;;;;;;19.90;39.80;;;;;;4983404;28;19917;-84